createdAt,value
2022-12-12T00:00:21.316Z,50.43
2022-12-12T00:01:21.328Z,50.43
2022-12-12T00:02:20.512Z,48.66
2022-12-12T00:03:20.467Z,48.66
2022-12-12T00:04:20.294Z,48.82
2022-12-12T00:05:20.311Z,48.82
2022-12-12T00:06:20.333Z,48.82
2022-12-12T00:07:20.277Z,48.50
2022-12-12T00:08:20.324Z,48.82
2022-12-12T00:09:20.273Z,48.82
2022-12-12T00:10:20.278Z,48.50
2022-12-12T00:11:20.271Z,48.98
2022-12-12T00:12:20.252Z,48.66
2022-12-12T00:13:20.250Z,54.14
2022-12-12T00:14:20.257Z,55.27
2022-12-12T00:15:20.268Z,48.82
2022-12-12T00:16:20.251Z,48.66
2022-12-12T00:17:20.239Z,49.15
2022-12-12T00:18:21.242Z,48.98
2022-12-12T00:19:20.231Z,48.50
2022-12-12T00:20:20.223Z,48.50
2022-12-12T00:21:20.215Z,48.98
2022-12-12T00:22:20.239Z,48.66
2022-12-12T00:23:20.211Z,52.21
2022-12-12T00:24:20.205Z,49.63
2022-12-12T00:25:20.197Z,48.98
2022-12-12T00:26:20.186Z,49.15
2022-12-12T00:27:20.200Z,48.98
2022-12-12T00:28:20.155Z,49.95
2022-12-12T00:29:20.156Z,51.08
2022-12-12T00:30:20.174Z,48.34
2022-12-12T00:31:20.224Z,48.66
2022-12-12T00:32:20.152Z,48.02
2022-12-12T00:33:20.150Z,50.76
2022-12-12T00:34:20.140Z,48.18
2022-12-12T00:35:20.136Z,48.34
2022-12-12T00:36:20.174Z,48.50
2022-12-12T00:37:20.339Z,48.02
2022-12-12T00:38:20.159Z,48.50
2022-12-12T00:39:20.111Z,48.50
2022-12-12T00:40:20.180Z,48.50
2022-12-12T00:41:20.114Z,48.98
2022-12-12T00:42:20.148Z,49.15
2022-12-12T00:43:20.072Z,49.15
2022-12-12T00:44:20.175Z,48.98
2022-12-12T00:45:20.098Z,48.82
2022-12-12T00:46:20.136Z,48.82
2022-12-12T00:47:20.063Z,49.15
2022-12-12T00:48:20.123Z,49.15
2022-12-12T00:49:20.067Z,48.82
2022-12-12T00:50:20.044Z,48.66
2022-12-12T00:51:20.065Z,48.50
2022-12-12T00:52:20.057Z,48.98
2022-12-12T00:53:20.063Z,49.15
2022-12-12T00:54:20.038Z,48.82
2022-12-12T00:55:20.013Z,48.82
2022-12-12T00:56:20.044Z,49.31
2022-12-12T00:57:19.993Z,48.98
2022-12-12T00:58:20.015Z,48.66
2022-12-12T00:59:20.007Z,48.82
2022-12-12T01:00:19.984Z,48.66
2022-12-12T01:01:20.023Z,49.47
2022-12-12T01:02:24.884Z,48.66
2022-12-12T01:03:22.054Z,48.50
2022-12-12T01:04:19.995Z,48.66
2022-12-12T01:05:19.963Z,48.82
2022-12-12T01:06:19.955Z,48.50
2022-12-12T01:07:19.941Z,48.82
2022-12-12T01:08:20.096Z,48.66
2022-12-12T01:09:19.967Z,48.82
2022-12-12T01:10:19.915Z,51.72
2022-12-12T01:11:19.914Z,51.24
2022-12-12T01:12:19.908Z,49.47
2022-12-12T01:13:19.956Z,48.66
2022-12-12T01:14:19.897Z,48.66
2022-12-12T01:15:19.950Z,48.50
2022-12-12T01:16:20.053Z,48.82
2022-12-12T01:17:19.886Z,48.66
2022-12-12T01:18:19.881Z,49.15
2022-12-12T01:19:19.866Z,49.95
2022-12-12T01:20:19.902Z,49.15
2022-12-12T01:21:19.881Z,48.50
2022-12-12T01:22:19.857Z,48.66
2022-12-12T01:23:19.841Z,48.50
2022-12-12T01:24:19.836Z,48.66
2022-12-12T01:25:19.871Z,48.82
2022-12-12T01:26:19.837Z,51.08
2022-12-12T01:27:19.839Z,48.98
2022-12-12T01:28:19.819Z,48.66
2022-12-12T01:29:19.829Z,48.82
2022-12-12T01:30:19.823Z,49.15
2022-12-12T01:31:19.846Z,48.82
2022-12-12T01:32:19.819Z,49.63
2022-12-12T01:33:19.804Z,48.98
2022-12-12T01:34:20.778Z,52.69
2022-12-12T01:35:19.799Z,49.47
2022-12-12T01:36:19.849Z,48.82
2022-12-12T01:37:19.774Z,48.82
2022-12-12T01:38:19.775Z,48.98
2022-12-12T01:39:19.788Z,56.24
2022-12-12T01:40:19.773Z,48.82
2022-12-12T01:41:19.803Z,51.56
2022-12-12T01:42:19.771Z,48.82
2022-12-12T01:43:19.757Z,48.66
2022-12-12T01:44:19.740Z,48.98
2022-12-12T01:45:19.741Z,48.98
2022-12-12T01:46:19.776Z,48.82
2022-12-12T01:47:19.725Z,48.82
2022-12-12T01:48:19.740Z,48.98
2022-12-12T01:49:19.713Z,48.82
2022-12-12T01:50:19.700Z,49.15
2022-12-12T01:51:19.750Z,48.98
2022-12-12T01:52:19.698Z,49.63
2022-12-12T01:53:19.697Z,49.31
2022-12-12T01:54:19.667Z,48.82
2022-12-12T01:55:19.673Z,48.98
2022-12-12T01:56:19.667Z,48.66
2022-12-12T01:57:19.697Z,48.66
2022-12-12T01:58:19.658Z,48.66
2022-12-12T01:59:19.638Z,51.88
2022-12-12T02:00:19.664Z,52.21
2022-12-12T02:01:19.645Z,48.18
2022-12-12T02:02:19.733Z,48.34
2022-12-12T02:03:19.658Z,48.82
2022-12-12T02:04:19.641Z,47.86
2022-12-12T02:05:19.607Z,49.95
2022-12-12T02:06:19.630Z,47.86
2022-12-12T02:07:19.599Z,48.34
2022-12-12T02:08:19.676Z,48.50
2022-12-12T02:09:19.587Z,48.34
2022-12-12T02:10:19.607Z,52.37
2022-12-12T02:11:19.590Z,48.66
2022-12-12T02:12:19.601Z,53.50
2022-12-12T02:13:19.615Z,48.66
2022-12-12T02:14:19.569Z,48.66
2022-12-12T02:15:19.583Z,51.40
2022-12-12T02:16:19.623Z,48.98
2022-12-12T02:17:19.559Z,48.98
2022-12-12T02:18:19.579Z,49.15
2022-12-12T02:19:19.539Z,48.98
2022-12-12T02:20:19.572Z,52.21
2022-12-12T02:21:19.557Z,49.31
2022-12-12T02:22:19.542Z,48.50
2022-12-12T02:23:20.144Z,48.50
2022-12-12T02:24:24.453Z,48.98
2022-12-12T02:25:21.530Z,48.18
2022-12-12T02:26:19.524Z,48.66
2022-12-12T02:27:19.504Z,48.34
2022-12-12T02:28:19.490Z,48.34
2022-12-12T02:29:19.474Z,48.82
2022-12-12T02:30:20.519Z,48.82
2022-12-12T02:31:19.520Z,48.82
2022-12-12T02:32:19.472Z,48.82
2022-12-12T02:33:19.583Z,48.82
2022-12-12T02:34:19.489Z,51.08
2022-12-12T02:35:19.442Z,49.15
2022-12-12T02:36:19.459Z,48.98
2022-12-12T02:37:19.452Z,49.47
2022-12-12T02:38:19.456Z,48.98
2022-12-12T02:39:19.467Z,48.82
2022-12-12T02:40:19.447Z,56.56
2022-12-12T02:41:19.426Z,51.40
2022-12-12T02:42:19.414Z,48.98
2022-12-12T02:43:19.423Z,49.47
2022-12-12T02:44:19.425Z,50.11
2022-12-12T02:45:19.422Z,48.98
2022-12-12T02:46:19.469Z,55.75
2022-12-12T02:47:20.407Z,52.05
2022-12-12T02:48:19.391Z,50.60
2022-12-12T02:49:19.386Z,49.47
2022-12-12T02:50:19.374Z,49.95
2022-12-12T02:51:19.376Z,52.53
2022-12-12T02:52:19.350Z,48.66
2022-12-12T02:53:19.394Z,48.82
2022-12-12T02:54:19.340Z,50.27
2022-12-12T02:55:19.345Z,48.82
2022-12-12T02:56:19.342Z,50.43
2022-12-12T02:57:19.329Z,48.98
2022-12-12T02:58:19.351Z,50.43
2022-12-12T02:59:19.365Z,53.33
2022-12-12T03:00:19.323Z,48.98
2022-12-12T03:01:19.336Z,52.53
2022-12-12T03:02:19.404Z,48.82
2022-12-12T03:03:19.275Z,48.66
2022-12-12T03:04:19.327Z,49.63
2022-12-12T03:05:19.298Z,48.82
2022-12-12T03:06:19.284Z,52.69
2022-12-12T03:07:19.278Z,61.71
2022-12-12T03:08:19.375Z,52.37
2022-12-12T03:09:19.279Z,51.40
2022-12-12T03:10:19.292Z,50.60
2022-12-12T03:11:19.280Z,48.50
2022-12-12T03:12:19.277Z,51.56
2022-12-12T03:13:19.239Z,48.98
2022-12-12T03:14:19.225Z,50.92
2022-12-12T03:15:19.263Z,50.60
2022-12-12T03:16:19.309Z,50.27
2022-12-12T03:17:19.241Z,60.10
2022-12-12T03:18:19.212Z,49.31
2022-12-12T03:19:19.199Z,49.15
2022-12-12T03:20:19.215Z,50.27
2022-12-12T03:21:19.197Z,49.47
2022-12-12T03:22:19.191Z,48.82
2022-12-12T03:23:19.172Z,49.31
2022-12-12T03:24:19.210Z,49.31
2022-12-12T03:25:19.186Z,48.82
2022-12-12T03:26:19.155Z,50.60
2022-12-12T03:27:20.156Z,48.82
2022-12-12T03:28:19.141Z,48.82
2022-12-12T03:29:19.162Z,53.01
2022-12-12T03:30:19.156Z,48.66
2022-12-12T03:31:19.180Z,50.27
2022-12-12T03:32:19.120Z,53.33
2022-12-12T03:33:19.121Z,52.53
2022-12-12T03:34:19.097Z,54.46
2022-12-12T03:35:19.108Z,48.82
2022-12-12T03:36:19.150Z,49.31
2022-12-12T03:37:19.105Z,48.82
2022-12-12T03:38:19.116Z,48.98
2022-12-12T03:39:19.098Z,49.63
2022-12-12T03:40:19.088Z,53.98
2022-12-12T03:41:19.079Z,51.08
2022-12-12T03:42:19.087Z,49.79
2022-12-12T03:43:19.096Z,48.82
2022-12-12T03:44:19.072Z,49.63
2022-12-12T03:45:19.047Z,48.82
2022-12-12T03:46:19.077Z,48.98
2022-12-12T03:47:19.050Z,50.60
2022-12-12T03:48:19.039Z,49.31
2022-12-12T03:49:19.061Z,49.79
2022-12-12T03:50:19.060Z,49.15
2022-12-12T03:51:19.022Z,51.24
2022-12-12T03:52:19.011Z,56.07
2022-12-12T03:53:19.015Z,52.53
2022-12-12T03:54:19.024Z,49.15
2022-12-12T03:55:20.023Z,48.98
2022-12-12T03:56:19.068Z,49.47
2022-12-12T03:57:18.994Z,50.60
2022-12-12T03:58:18.994Z,48.98
2022-12-12T03:59:24.084Z,51.88
2022-12-12T04:00:20.995Z,49.95
2022-12-12T04:01:20.071Z,49.95
2022-12-12T04:02:19.019Z,49.31
2022-12-12T04:03:19.002Z,51.40
2022-12-12T04:04:18.960Z,51.56
2022-12-12T04:05:18.938Z,53.33
2022-12-12T04:06:18.968Z,49.79
2022-12-12T04:07:18.942Z,52.85
2022-12-12T04:08:19.020Z,56.56
2022-12-12T04:09:18.934Z,55.91
2022-12-12T04:10:18.963Z,51.72
2022-12-12T04:11:18.925Z,49.95
2022-12-12T04:12:18.972Z,50.11
2022-12-12T04:13:18.893Z,56.56
2022-12-12T04:14:18.905Z,57.04
2022-12-12T04:15:18.876Z,49.79
2022-12-12T04:16:19.033Z,55.27
2022-12-12T04:17:18.921Z,53.98
2022-12-12T04:18:18.926Z,51.72
2022-12-12T04:19:18.913Z,50.60
2022-12-12T04:20:18.915Z,51.40
2022-12-12T04:21:18.854Z,53.01
2022-12-12T04:22:22.241Z,52.37
2022-12-12T04:23:20.853Z,52.69
2022-12-12T04:24:18.845Z,54.14
2022-12-12T04:25:18.842Z,56.40
2022-12-12T04:26:18.840Z,55.43
2022-12-12T04:27:18.865Z,49.79
2022-12-12T04:28:18.821Z,64.29
2022-12-12T04:29:18.805Z,60.26
2022-12-12T04:30:18.833Z,64.78
2022-12-12T04:31:18.860Z,54.62
2022-12-12T04:32:18.910Z,55.11
2022-12-12T04:33:18.771Z,57.52
2022-12-12T04:34:18.795Z,58.17
2022-12-12T04:35:18.764Z,53.98
2022-12-12T04:36:18.794Z,54.95
2022-12-12T04:37:18.773Z,52.85
2022-12-12T04:38:18.800Z,56.07
2022-12-12T04:39:18.753Z,51.88
2022-12-12T04:40:18.739Z,52.37
2022-12-12T04:41:18.743Z,61.71
2022-12-12T04:42:18.755Z,50.92
2022-12-12T04:43:18.770Z,54.79
2022-12-12T04:44:18.712Z,59.30
2022-12-12T04:45:18.704Z,57.69
2022-12-12T04:46:18.799Z,52.53
2022-12-12T04:47:18.735Z,59.30
2022-12-12T04:48:18.823Z,54.30
2022-12-12T04:49:18.682Z,56.72
2022-12-12T04:50:18.687Z,61.87
2022-12-12T04:51:18.702Z,54.30
2022-12-12T04:52:18.680Z,56.07
2022-12-12T04:53:18.981Z,57.52
2022-12-12T04:54:19.722Z,54.62
2022-12-12T04:55:18.654Z,58.97
2022-12-12T04:56:18.655Z,52.69
2022-12-12T04:57:18.650Z,56.72
2022-12-12T04:58:18.636Z,59.46
2022-12-12T04:59:18.695Z,53.50
2022-12-12T05:00:18.630Z,59.14
2022-12-12T05:01:18.657Z,57.04
2022-12-12T05:02:18.689Z,56.88
2022-12-12T05:03:18.620Z,55.91
2022-12-12T05:04:18.627Z,56.88
2022-12-12T05:05:18.597Z,58.97
2022-12-12T05:06:18.601Z,52.85
2022-12-12T05:07:18.610Z,54.46
2022-12-12T05:08:18.661Z,53.33
2022-12-12T05:09:18.600Z,57.04
2022-12-12T05:10:18.562Z,54.62
2022-12-12T05:11:18.585Z,55.43
2022-12-12T05:12:18.564Z,55.75
2022-12-12T05:13:18.553Z,51.88
2022-12-12T05:14:18.593Z,54.95
2022-12-12T05:15:18.593Z,52.85
2022-12-12T05:16:18.628Z,59.62
2022-12-12T05:17:18.608Z,58.17
2022-12-12T05:18:18.545Z,54.79
2022-12-12T05:19:18.553Z,54.95
2022-12-12T05:20:18.557Z,56.72
2022-12-12T05:21:18.550Z,55.75
2022-12-12T05:22:18.523Z,56.88
2022-12-12T05:23:18.494Z,59.14
2022-12-12T05:24:18.536Z,59.14
2022-12-12T05:25:18.531Z,59.46
2022-12-12T05:26:18.510Z,57.85
2022-12-12T05:27:18.481Z,58.81
2022-12-12T05:28:18.494Z,59.94
2022-12-12T05:29:18.484Z,55.11
2022-12-12T05:30:18.468Z,55.59
2022-12-12T05:31:18.524Z,58.01
2022-12-12T05:32:18.442Z,57.04
2022-12-12T05:33:18.516Z,58.17
2022-12-12T05:34:18.448Z,54.95
2022-12-12T05:35:18.443Z,57.69
2022-12-12T05:36:18.492Z,56.40
2022-12-12T05:37:18.479Z,55.27
2022-12-12T05:38:18.453Z,56.24
2022-12-12T05:39:18.436Z,51.88
2022-12-12T05:40:18.421Z,55.43
2022-12-12T05:41:18.418Z,55.27
2022-12-12T05:42:18.409Z,55.75
2022-12-12T05:43:18.443Z,54.30
2022-12-12T05:44:18.398Z,56.07
2022-12-12T05:45:18.405Z,57.20
2022-12-12T05:46:18.429Z,55.11
2022-12-12T05:47:18.408Z,57.36
2022-12-12T05:48:24.144Z,56.72
2022-12-12T05:49:20.363Z,57.69
2022-12-12T05:50:18.426Z,53.98
2022-12-12T05:51:18.377Z,53.17
2022-12-12T05:52:18.356Z,56.56
2022-12-12T05:53:18.400Z,56.24
2022-12-12T05:54:18.351Z,57.04
2022-12-12T05:55:18.345Z,55.75
2022-12-12T05:56:18.334Z,57.69
2022-12-12T05:57:18.325Z,55.91
2022-12-12T05:58:18.340Z,59.78
2022-12-12T05:59:18.346Z,59.46
2022-12-12T06:00:18.308Z,60.59
2022-12-12T06:01:18.326Z,59.94
2022-12-12T06:02:18.353Z,63.16
2022-12-12T06:03:18.325Z,62.68
2022-12-12T06:04:18.458Z,62.04
2022-12-12T06:05:18.317Z,54.46
2022-12-12T06:06:18.278Z,50.92
2022-12-12T06:07:18.292Z,57.36
2022-12-12T06:08:22.208Z,56.40
2022-12-12T06:09:20.255Z,54.46
2022-12-12T06:10:18.289Z,53.98
2022-12-12T06:11:18.273Z,55.59
2022-12-12T06:12:18.266Z,56.72
2022-12-12T06:13:18.234Z,54.46
2022-12-12T06:14:18.216Z,57.04
2022-12-12T06:15:18.236Z,57.04
2022-12-12T06:16:18.346Z,54.95
2022-12-12T06:17:18.245Z,55.27
2022-12-12T06:18:18.213Z,52.21
2022-12-12T06:19:18.252Z,55.43
2022-12-12T06:20:18.205Z,56.72
2022-12-12T06:21:18.251Z,56.24
2022-12-12T06:22:18.183Z,54.14
2022-12-12T06:23:18.196Z,56.24
2022-12-12T06:24:18.173Z,55.43
2022-12-12T06:25:18.189Z,57.20
2022-12-12T06:26:18.197Z,56.07
2022-12-12T06:27:18.179Z,56.56
2022-12-12T06:28:18.209Z,54.30
2022-12-12T06:29:18.239Z,56.24
2022-12-12T06:30:18.178Z,58.33
2022-12-12T06:31:18.235Z,56.07
2022-12-12T06:32:18.157Z,59.14
2022-12-12T06:33:18.131Z,57.20
2022-12-12T06:34:18.155Z,54.30
2022-12-12T06:35:18.108Z,51.40
2022-12-12T06:36:18.106Z,57.04
2022-12-12T06:37:18.141Z,54.62
2022-12-12T06:38:18.109Z,54.62
2022-12-12T06:39:19.127Z,57.20
2022-12-12T06:40:18.101Z,57.20
2022-12-12T06:41:18.075Z,55.59
2022-12-12T06:42:18.169Z,56.40
2022-12-12T06:43:18.108Z,53.50
2022-12-12T06:44:18.081Z,56.40
2022-12-12T06:45:18.074Z,55.11
2022-12-12T06:46:18.116Z,56.40
2022-12-12T06:47:18.043Z,61.55
2022-12-12T06:48:18.066Z,69.93
2022-12-12T06:49:18.108Z,54.95
2022-12-12T06:50:23.394Z,56.72
2022-12-12T06:51:20.032Z,61.71
2022-12-12T06:52:18.027Z,61.07
2022-12-12T06:53:18.022Z,58.65
2022-12-12T06:54:18.079Z,59.14
2022-12-12T06:55:18.013Z,58.97
2022-12-12T06:56:18.019Z,58.17
2022-12-12T06:57:18.005Z,54.46
2022-12-12T06:58:18.011Z,58.17
2022-12-12T06:59:18.023Z,58.49
2022-12-12T07:00:18.005Z,61.23
2022-12-12T07:01:18.062Z,64.29
2022-12-12T07:02:18.088Z,57.20
2022-12-12T07:03:18.049Z,54.46
2022-12-12T07:04:17.997Z,63.65
2022-12-12T07:05:17.946Z,57.69
2022-12-12T07:06:17.995Z,57.36
2022-12-12T07:07:17.940Z,57.69
2022-12-12T07:08:17.970Z,59.46
2022-12-12T07:09:17.954Z,60.42
2022-12-12T07:10:21.289Z,57.36
2022-12-12T07:11:18.948Z,57.20
2022-12-12T07:12:17.915Z,57.20
2022-12-12T07:13:17.887Z,57.69
2022-12-12T07:14:17.882Z,68.48
2022-12-12T07:15:17.923Z,56.40
2022-12-12T07:16:17.907Z,57.36
2022-12-12T07:17:17.899Z,58.17
2022-12-12T07:18:17.865Z,66.39
2022-12-12T07:19:17.869Z,57.20
2022-12-12T07:20:17.897Z,60.59
2022-12-12T07:21:17.847Z,70.90
2022-12-12T07:22:17.836Z,68.96
2022-12-12T07:23:17.847Z,55.11
2022-12-12T07:24:17.829Z,58.17
2022-12-12T07:25:17.838Z,58.17
2022-12-12T07:26:17.841Z,56.88
2022-12-12T07:27:21.632Z,57.04
2022-12-12T07:28:18.815Z,66.06
2022-12-12T07:29:17.815Z,67.68
2022-12-12T07:30:17.801Z,61.87
2022-12-12T07:31:17.839Z,55.59
2022-12-12T07:32:17.817Z,54.62
2022-12-12T07:33:17.771Z,55.59
2022-12-12T07:34:17.784Z,56.07
2022-12-12T07:35:17.808Z,58.49
2022-12-12T07:36:17.817Z,54.95
2022-12-12T07:37:17.779Z,51.24
2022-12-12T07:38:17.726Z,57.52
2022-12-12T07:39:20.895Z,55.11
2022-12-12T07:40:18.732Z,57.20
2022-12-12T07:41:18.759Z,55.59
2022-12-12T07:42:17.740Z,55.75
2022-12-12T07:43:17.729Z,60.75
2022-12-12T07:44:17.732Z,52.85
2022-12-12T07:45:18.585Z,60.26
2022-12-12T07:46:18.837Z,59.78
2022-12-12T07:47:17.700Z,58.17
2022-12-12T07:48:17.724Z,56.56
2022-12-12T07:49:17.761Z,52.53
2022-12-12T07:50:17.708Z,56.07
2022-12-12T07:51:17.673Z,59.14
2022-12-12T07:52:17.705Z,51.40
2022-12-12T07:53:17.677Z,55.27
2022-12-12T07:54:17.696Z,57.36
2022-12-12T07:55:17.662Z,52.05
2022-12-12T07:56:17.655Z,58.33
2022-12-12T07:57:17.674Z,58.81
2022-12-12T07:58:17.670Z,57.69
2022-12-12T07:59:17.673Z,57.04
2022-12-12T08:00:17.643Z,60.42
2022-12-12T08:01:17.654Z,59.46
2022-12-12T08:02:17.694Z,55.11
2022-12-12T08:03:17.621Z,57.20
2022-12-12T08:04:17.701Z,57.36
2022-12-12T08:05:17.825Z,60.10
2022-12-12T08:06:17.615Z,63.97
2022-12-12T08:07:18.614Z,56.24
2022-12-12T08:08:18.167Z,58.33
2022-12-12T08:09:17.573Z,55.11
2022-12-12T08:10:17.572Z,64.13
2022-12-12T08:11:17.589Z,53.33
2022-12-12T08:12:17.576Z,57.52
2022-12-12T08:13:17.560Z,58.65
2022-12-12T08:14:17.611Z,54.62
2022-12-12T08:15:17.541Z,54.46
2022-12-12T08:16:17.718Z,58.81
2022-12-12T08:17:17.521Z,56.07
2022-12-12T08:18:17.642Z,58.65
2022-12-12T08:19:17.536Z,51.56
2022-12-12T08:20:17.551Z,59.62
2022-12-12T08:21:23.120Z,56.72
2022-12-12T08:22:19.554Z,54.95
2022-12-12T08:23:17.502Z,56.72
2022-12-12T08:24:17.530Z,54.95
2022-12-12T08:25:17.503Z,66.39
2022-12-12T08:26:17.480Z,59.94
2022-12-12T08:27:17.493Z,57.85
2022-12-12T08:28:17.509Z,57.04
2022-12-12T08:29:17.478Z,55.59
2022-12-12T08:30:17.490Z,57.04
2022-12-12T08:31:17.618Z,59.62
2022-12-12T08:32:17.467Z,52.69
2022-12-12T08:33:17.468Z,57.69
2022-12-12T08:34:17.474Z,64.61
2022-12-12T08:35:17.418Z,57.69
2022-12-12T08:36:17.451Z,56.72
2022-12-12T08:37:17.439Z,58.81
2022-12-12T08:38:17.425Z,65.42
2022-12-12T08:39:17.438Z,59.14
2022-12-12T08:40:17.408Z,58.65
2022-12-12T08:41:17.409Z,55.11
2022-12-12T08:42:17.411Z,57.69
2022-12-12T08:43:17.403Z,63.16
2022-12-12T08:44:17.454Z,58.17
2022-12-12T08:45:17.512Z,66.55
2022-12-12T08:46:18.103Z,62.68
2022-12-12T08:47:18.364Z,65.42
2022-12-12T08:48:17.369Z,57.20
2022-12-12T08:49:17.393Z,56.56
2022-12-12T08:50:17.374Z,60.91
2022-12-12T08:51:17.392Z,66.55
2022-12-12T08:52:17.337Z,64.61
2022-12-12T08:53:17.376Z,56.72
2022-12-12T08:54:17.338Z,60.91
2022-12-12T08:55:17.374Z,57.36
2022-12-12T08:56:17.355Z,62.84
2022-12-12T08:57:20.251Z,57.69
2022-12-12T08:58:18.344Z,59.14
2022-12-12T08:59:17.301Z,58.81
2022-12-12T09:00:17.283Z,60.26
2022-12-12T09:01:17.390Z,60.59
2022-12-12T09:02:17.388Z,53.50
2022-12-12T09:03:17.311Z,58.65
2022-12-12T09:04:17.280Z,55.11
2022-12-12T09:05:17.312Z,59.14
2022-12-12T09:06:17.268Z,61.71
2022-12-12T09:07:17.252Z,61.23
2022-12-12T09:08:17.347Z,58.17
2022-12-12T09:09:17.271Z,57.04
2022-12-12T09:10:17.251Z,56.56
2022-12-12T09:11:17.258Z,60.91
2022-12-12T09:12:17.286Z,59.14
2022-12-12T09:13:17.229Z,60.26
2022-12-12T09:14:17.235Z,56.56
2022-12-12T09:15:17.201Z,58.81
2022-12-12T09:16:17.314Z,56.72
2022-12-12T09:17:17.235Z,57.69
2022-12-12T09:18:17.197Z,58.49
2022-12-12T09:19:17.197Z,54.14
2022-12-12T09:20:17.178Z,52.37
2022-12-12T09:21:17.197Z,63.16
2022-12-12T09:22:17.188Z,56.40
2022-12-12T09:23:17.199Z,59.78
2022-12-12T09:24:17.163Z,57.52
2022-12-12T09:25:18.035Z,57.36
2022-12-12T09:26:17.252Z,62.04
2022-12-12T09:27:17.169Z,59.14
2022-12-12T09:28:17.177Z,60.42
2022-12-12T09:29:17.180Z,56.56
2022-12-12T09:30:17.168Z,59.78
2022-12-12T09:31:17.374Z,53.98
2022-12-12T09:32:22.772Z,60.10
2022-12-12T09:33:19.158Z,58.81
2022-12-12T09:34:17.134Z,58.01
2022-12-12T09:35:17.140Z,59.62
2022-12-12T09:36:17.125Z,57.69
2022-12-12T09:37:17.103Z,57.04
2022-12-12T09:38:17.099Z,59.62
2022-12-12T09:39:17.103Z,62.36
2022-12-12T09:40:17.114Z,57.04
2022-12-12T09:41:17.061Z,57.36
2022-12-12T09:42:17.101Z,56.72
2022-12-12T09:43:17.066Z,60.59
2022-12-12T09:44:17.091Z,59.46
2022-12-12T09:45:17.086Z,56.24
2022-12-12T09:46:17.054Z,60.42
2022-12-12T09:47:17.058Z,54.14
2022-12-12T09:48:17.032Z,63.33
2022-12-12T09:49:17.012Z,59.14
2022-12-12T09:50:17.075Z,57.85
2022-12-12T09:51:17.018Z,56.40
2022-12-12T09:52:17.127Z,54.14
2022-12-12T09:53:17.033Z,62.20
2022-12-12T09:54:17.035Z,56.88
2022-12-12T09:55:17.081Z,60.59
2022-12-12T09:56:17.070Z,57.20
2022-12-12T09:57:17.113Z,63.97
2022-12-12T09:58:17.123Z,62.36
2022-12-12T09:59:17.019Z,59.14
2022-12-12T10:00:17.399Z,61.23
2022-12-12T10:01:17.208Z,62.36
2022-12-12T10:02:17.018Z,64.61
2022-12-12T10:03:16.997Z,67.51
2022-12-12T10:04:16.954Z,64.61
2022-12-12T10:05:16.955Z,57.20
2022-12-12T10:07:18.967Z,58.65
2022-12-12T10:08:16.960Z,60.10
2022-12-12T10:09:16.935Z,56.07
2022-12-12T10:10:16.925Z,61.55
2022-12-12T10:11:16.912Z,59.30
2022-12-12T10:12:17.020Z,58.01
2022-12-12T10:13:16.942Z,68.32
2022-12-12T10:14:16.900Z,59.94
2022-12-12T10:15:16.932Z,57.20
2022-12-12T10:16:16.966Z,56.72
2022-12-12T10:17:16.889Z,59.94
2022-12-12T10:18:16.898Z,56.88
2022-12-12T10:19:16.856Z,59.14
2022-12-12T10:20:16.929Z,59.14
2022-12-12T10:21:16.843Z,56.56
2022-12-12T10:22:16.883Z,58.65
2022-12-12T10:23:16.935Z,58.81
2022-12-12T10:24:17.156Z,50.11
2022-12-12T10:25:16.835Z,59.46
2022-12-12T10:26:16.805Z,60.10
2022-12-12T10:27:16.945Z,58.65
2022-12-12T10:28:16.825Z,59.62
2022-12-12T10:29:16.834Z,59.78
2022-12-12T10:30:16.822Z,57.20
2022-12-12T10:31:16.860Z,61.39
2022-12-12T10:32:16.836Z,59.30
2022-12-12T10:33:16.774Z,55.27
2022-12-12T10:34:16.806Z,58.97
2022-12-12T10:35:21.340Z,60.75
2022-12-12T10:36:18.751Z,51.88
2022-12-12T10:37:16.799Z,59.62
2022-12-12T10:38:16.767Z,60.91
2022-12-12T10:39:16.773Z,60.10
2022-12-12T10:40:16.851Z,59.94
2022-12-12T10:41:16.748Z,61.23
2022-12-12T10:42:16.740Z,60.10
2022-12-12T10:43:17.095Z,61.07
2022-12-12T10:44:16.841Z,57.36
2022-12-12T10:45:17.413Z,60.10
2022-12-12T10:46:16.818Z,58.17
2022-12-12T10:47:16.723Z,59.14
2022-12-12T10:48:16.730Z,61.07
2022-12-12T10:49:16.701Z,60.75
2022-12-12T10:50:16.695Z,61.39
2022-12-12T10:51:16.703Z,60.10
2022-12-12T10:52:16.669Z,56.24
2022-12-12T10:53:16.713Z,60.91
2022-12-12T10:54:16.697Z,64.29
2022-12-12T10:55:16.656Z,56.56
2022-12-12T10:56:16.665Z,58.65
2022-12-12T10:57:20.205Z,57.69
2022-12-12T10:58:17.645Z,55.43
2022-12-12T10:59:16.638Z,57.36
2022-12-12T11:00:16.624Z,62.20
2022-12-12T11:01:16.674Z,61.39
2022-12-12T11:02:16.744Z,60.75
2022-12-12T11:03:16.704Z,59.78
2022-12-12T11:04:16.623Z,59.30
2022-12-12T11:05:16.834Z,54.95
2022-12-12T11:06:16.653Z,61.07
2022-12-12T11:07:16.625Z,61.55
2022-12-12T11:08:16.691Z,59.78
2022-12-12T11:09:16.584Z,62.20
2022-12-12T11:10:16.662Z,61.23
2022-12-12T11:11:16.632Z,58.65
2022-12-12T11:12:16.574Z,61.71
2022-12-12T11:13:16.583Z,61.55
2022-12-12T11:14:16.562Z,60.75
2022-12-12T11:15:16.639Z,61.71
2022-12-12T11:16:16.616Z,61.71
2022-12-12T11:17:16.606Z,59.30
2022-12-12T11:18:16.588Z,60.26
2022-12-12T11:19:16.538Z,60.59
2022-12-12T11:20:16.532Z,61.71
2022-12-12T11:21:16.507Z,59.30
2022-12-12T11:22:16.571Z,62.20
2022-12-12T11:23:18.342Z,61.71
2022-12-12T11:24:17.529Z,68.00
2022-12-12T11:25:16.598Z,62.84
2022-12-12T11:26:16.526Z,62.36
2022-12-12T11:27:16.594Z,59.62
2022-12-12T11:28:16.494Z,59.14
2022-12-12T11:29:16.516Z,55.43
2022-12-12T11:30:16.515Z,60.10
2022-12-12T11:31:16.499Z,59.62
2022-12-12T11:32:16.522Z,62.36
2022-12-12T11:33:16.442Z,62.52
2022-12-12T11:34:16.451Z,60.10
2022-12-12T11:35:16.448Z,59.14
2022-12-12T11:36:16.431Z,58.65
2022-12-12T11:37:16.490Z,61.39
2022-12-12T11:38:16.472Z,61.07
2022-12-12T11:39:16.486Z,60.59
2022-12-12T11:40:16.444Z,62.52
2022-12-12T11:41:16.448Z,58.65
2022-12-12T11:42:16.418Z,58.17
2022-12-12T11:43:16.444Z,61.07
2022-12-12T11:44:20.109Z,66.06
2022-12-12T11:45:17.396Z,61.39
2022-12-12T11:46:16.452Z,60.26
2022-12-12T11:47:16.359Z,56.72
2022-12-12T11:48:16.407Z,55.91
2022-12-12T11:49:16.416Z,62.36
2022-12-12T11:50:16.358Z,64.78
2022-12-12T11:51:17.355Z,62.36
2022-12-12T11:52:17.236Z,60.26
2022-12-12T11:53:16.340Z,58.81
2022-12-12T11:54:16.351Z,55.11
2022-12-12T11:55:16.449Z,59.94
2022-12-12T11:56:16.447Z,59.14
2022-12-12T11:57:16.337Z,62.52
2022-12-12T11:58:16.321Z,61.55
2022-12-12T11:59:16.362Z,57.69
2022-12-12T12:00:16.376Z,58.01
2022-12-12T12:01:16.293Z,60.59
2022-12-12T12:02:16.332Z,59.78
2022-12-12T12:03:16.293Z,61.55
2022-12-12T12:04:16.319Z,60.75
2022-12-12T12:05:16.495Z,60.10
2022-12-12T12:06:16.328Z,61.71
2022-12-12T12:07:16.310Z,57.36
2022-12-12T12:08:16.266Z,68.80
2022-12-12T12:09:16.242Z,63.49
2022-12-12T12:10:19.664Z,57.36
2022-12-12T12:11:18.625Z,59.94
2022-12-12T12:12:16.276Z,62.36
2022-12-12T12:13:16.248Z,59.62
2022-12-12T12:14:16.242Z,60.42
2022-12-12T12:15:16.407Z,60.75
2022-12-12T12:16:16.310Z,62.04
2022-12-12T12:17:17.229Z,60.26
2022-12-12T12:18:16.329Z,60.59
2022-12-12T12:19:16.242Z,61.23
2022-12-12T12:20:16.202Z,59.30
2022-12-12T12:21:16.192Z,55.91
2022-12-12T12:22:16.180Z,62.84
2022-12-12T12:23:16.192Z,60.26
2022-12-12T12:24:16.229Z,56.24
2022-12-12T12:25:16.488Z,59.14
2022-12-12T12:26:16.155Z,60.75
2022-12-12T12:27:16.199Z,59.78
2022-12-12T12:28:16.157Z,59.30
2022-12-12T12:29:16.167Z,58.01
2022-12-12T12:30:17.287Z,64.13
2022-12-12T12:31:16.230Z,59.94
2022-12-12T12:32:16.115Z,60.26
2022-12-12T12:33:17.173Z,57.69
2022-12-12T12:34:16.177Z,61.39
2022-12-12T12:35:16.365Z,60.75
2022-12-12T12:36:20.833Z,56.40
2022-12-12T12:37:18.122Z,58.17
2022-12-12T12:38:16.156Z,59.78
2022-12-12T12:39:16.087Z,57.85
2022-12-12T12:40:16.087Z,59.94
2022-12-12T12:41:16.131Z,59.78
2022-12-12T12:42:16.104Z,61.23
2022-12-12T12:43:16.046Z,56.07
2022-12-12T12:44:16.065Z,59.94
2022-12-12T12:45:16.371Z,58.17
2022-12-12T12:46:16.185Z,60.75
2022-12-12T12:47:16.177Z,57.69
2022-12-12T12:48:16.166Z,56.72
2022-12-12T12:49:16.096Z,58.81
2022-12-12T12:50:16.589Z,57.20
2022-12-12T12:51:16.028Z,59.78
2022-12-12T12:52:16.321Z,58.65
2022-12-12T12:53:16.041Z,59.30